sensor_id;sensor_type;location;lat;lon;timestamp;P1;durP1;ratioP1;P2;durP2;ratioP2
15883;SDS011;8040;50.254;10.960;2023-11-19T00:02:07;440.58;;;132.98;;
15883;SDS011;8040;50.254;10.960;2023-11-19T00:04:36;430.70;;;129.20;;
15883;SDS011;8040;50.254;10.960;2023-11-19T00:07:04;428.05;;;128.48;;
15883;SDS011;8040;50.254;10.960;2023-11-19T00:09:31;431.35;;;131.27;;
15883;SDS011;8040;50.254;10.960;2023-11-19T00:11:57;426.40;;;127.50;;
15883;SDS011;8040;50.254;10.960;2023-11-19T00:14:25;428.03;;;126.97;;
15883;SDS011;8040;50.254;10.960;2023-11-19T00:16:51;430.58;;;130.27;;
15883;SDS011;8040;50.254;10.960;2023-11-19T00:19:16;430.13;;;128.10;;
15883;SDS011;8040;50.254;10.960;2023-11-19T00:21:42;430.10;;;129.17;;
15883;SDS011;8040;50.254;10.960;2023-11-19T00:24:08;430.65;;;128.80;;
15883;SDS011;8040;50.254;10.960;2023-11-19T00:26:34;442.07;;;132.23;;
15883;SDS011;8040;50.254;10.960;2023-11-19T00:28:59;447.50;;;133.63;;
15883;SDS011;8040;50.254;10.960;2023-11-19T00:31:25;426.13;;;125.90;;
15883;SDS011;8040;50.254;10.960;2023-11-19T00:33:53;431.88;;;129.57;;
15883;SDS011;8040;50.254;10.960;2023-11-19T00:36:19;431.73;;;130.13;;
15883;SDS011;8040;50.254;10.960;2023-11-19T00:41:47;432.77;;;128.75;;
15883;SDS011;8040;50.254;10.960;2023-11-19T00:44:13;431.33;;;129.65;;
15883;SDS011;8040;50.254;10.960;2023-11-19T00:46:39;437.20;;;130.77;;
15883;SDS011;8040;50.254;10.960;2023-11-19T00:49:04;430.52;;;128.73;;
15883;SDS011;8040;50.254;10.960;2023-11-19T00:51:30;438.13;;;131.98;;
15883;SDS011;8040;50.254;10.960;2023-11-19T00:53:56;452.73;;;134.45;;
15883;SDS011;8040;50.254;10.960;2023-11-19T00:56:23;435.67;;;131.13;;
15883;SDS011;8040;50.254;10.960;2023-11-19T00:58:49;437.88;;;130.65;;
15883;SDS011;8040;50.254;10.960;2023-11-19T01:01:14;431.63;;;129.03;;
15883;SDS011;8040;50.254;10.960;2023-11-19T01:03:40;444.75;;;133.60;;
15883;SDS011;8040;50.254;10.960;2023-11-19T01:06:05;438.70;;;130.60;;
15883;SDS011;8040;50.254;10.960;2023-11-19T01:08:31;434.17;;;130.63;;
15883;SDS011;8040;50.254;10.960;2023-11-19T01:10:56;436.37;;;131.97;;
15883;SDS011;8040;50.254;10.960;2023-11-19T01:13:22;428.97;;;127.47;;
15883;SDS011;8040;50.254;10.960;2023-11-19T01:15:47;430.60;;;129.53;;
15883;SDS011;8040;50.254;10.960;2023-11-19T01:18:13;430.60;;;130.27;;
15883;SDS011;8040;50.254;10.960;2023-11-19T01:20:38;431.43;;;130.97;;
15883;SDS011;8040;50.254;10.960;2023-11-19T01:23:07;436.73;;;130.50;;
15883;SDS011;8040;50.254;10.960;2023-11-19T01:25:32;429.88;;;129.15;;
15883;SDS011;8040;50.254;10.960;2023-11-19T01:27:59;435.38;;;131.70;;
15883;SDS011;8040;50.254;10.960;2023-11-19T01:30:24;432.77;;;128.57;;
15883;SDS011;8040;50.254;10.960;2023-11-19T01:32:50;435.00;;;129.40;;
15883;SDS011;8040;50.254;10.960;2023-11-19T01:35:16;450.67;;;135.10;;
15883;SDS011;8040;50.254;10.960;2023-11-19T01:37:44;453.42;;;134.27;;
15883;SDS011;8040;50.254;10.960;2023-11-19T01:40:10;447.50;;;134.90;;
15883;SDS011;8040;50.254;10.960;2023-11-19T01:42:37;438.95;;;129.90;;
15883;SDS011;8040;50.254;10.960;2023-11-19T01:45:03;443.15;;;132.27;;
15883;SDS011;8040;50.254;10.960;2023-11-19T01:47:32;453.70;;;135.25;;
15883;SDS011;8040;50.254;10.960;2023-11-19T01:49:58;435.30;;;129.20;;
15883;SDS011;8040;50.254;10.960;2023-11-19T01:52:24;454.02;;;134.43;;
15883;SDS011;8040;50.254;10.960;2023-11-19T01:54:51;449.90;;;133.82;;
15883;SDS011;8040;50.254;10.960;2023-11-19T01:57:18;455.33;;;136.20;;
15883;SDS011;8040;50.254;10.960;2023-11-19T01:59:44;453.37;;;134.73;;
15883;SDS011;8040;50.254;10.960;2023-11-19T02:02:10;452.60;;;136.23;;
15883;SDS011;8040;50.254;10.960;2023-11-19T02:04:37;454.85;;;136.25;;
15883;SDS011;8040;50.254;10.960;2023-11-19T02:07:03;460.17;;;138.00;;
15883;SDS011;8040;50.254;10.960;2023-11-19T02:09:29;461.40;;;136.95;;
15883;SDS011;8040;50.254;10.960;2023-11-19T02:11:55;461.08;;;139.27;;
15883;SDS011;8040;50.254;10.960;2023-11-19T02:14:24;455.88;;;138.82;;
15883;SDS011;8040;50.254;10.960;2023-11-19T02:16:51;454.33;;;137.32;;
15883;SDS011;8040;50.254;10.960;2023-11-19T02:19:20;463.38;;;139.45;;
15883;SDS011;8040;50.254;10.960;2023-11-19T02:21:45;452.98;;;136.38;;
15883;SDS011;8040;50.254;10.960;2023-11-19T02:24:11;476.60;;;145.07;;
15883;SDS011;8040;50.254;10.960;2023-11-19T02:26:39;470.52;;;139.63;;
15883;SDS011;8040;50.254;10.960;2023-11-19T02:29:16;451.58;;;134.07;;
15883;SDS011;8040;50.254;10.960;2023-11-19T02:31:42;450.30;;;134.68;;
15883;SDS011;8040;50.254;10.960;2023-11-19T02:34:10;449.07;;;136.63;;
15883;SDS011;8040;50.254;10.960;2023-11-19T02:36:37;454.27;;;136.95;;
15883;SDS011;8040;50.254;10.960;2023-11-19T02:39:03;457.37;;;138.50;;
15883;SDS011;8040;50.254;10.960;2023-11-19T02:41:28;451.90;;;136.83;;
15883;SDS011;8040;50.254;10.960;2023-11-19T02:43:54;447.50;;;135.87;;
15883;SDS011;8040;50.254;10.960;2023-11-19T02:46:19;445.50;;;134.00;;
15883;SDS011;8040;50.254;10.960;2023-11-19T02:48:45;454.77;;;138.37;;
15883;SDS011;8040;50.254;10.960;2023-11-19T02:51:11;453.95;;;143.07;;
15883;SDS011;8040;50.254;10.960;2023-11-19T02:53:37;448.43;;;138.10;;
15883;SDS011;8040;50.254;10.960;2023-11-19T02:56:03;442.20;;;133.90;;
15883;SDS011;8040;50.254;10.960;2023-11-19T02:58:42;433.38;;;134.07;;
15883;SDS011;8040;50.254;10.960;2023-11-19T03:01:09;462.63;;;140.70;;
15883;SDS011;8040;50.254;10.960;2023-11-19T03:03:44;455.15;;;137.85;;
15883;SDS011;8040;50.254;10.960;2023-11-19T03:06:14;443.98;;;133.50;;
15883;SDS011;8040;50.254;10.960;2023-11-19T03:08:39;463.13;;;138.18;;
15883;SDS011;8040;50.254;10.960;2023-11-19T03:11:05;452.03;;;134.60;;
15883;SDS011;8040;50.254;10.960;2023-11-19T03:13:30;449.43;;;136.37;;
15883;SDS011;8040;50.254;10.960;2023-11-19T03:15:56;436.43;;;131.10;;
15883;SDS011;8040;50.254;10.960;2023-11-19T03:18:21;440.23;;;132.80;;
15883;SDS011;8040;50.254;10.960;2023-11-19T03:20:47;437.00;;;132.80;;
15883;SDS011;8040;50.254;10.960;2023-11-19T03:23:13;431.50;;;131.52;;
15883;SDS011;8040;50.254;10.960;2023-11-19T03:25:38;432.53;;;129.07;;
15883;SDS011;8040;50.254;10.960;2023-11-19T03:28:04;436.33;;;131.80;;
15883;SDS011;8040;50.254;10.960;2023-11-19T03:30:30;430.70;;;132.00;;
15883;SDS011;8040;50.254;10.960;2023-11-19T03:32:56;432.85;;;129.50;;
15883;SDS011;8040;50.254;10.960;2023-11-19T03:35:23;435.30;;;130.00;;
15883;SDS011;8040;50.254;10.960;2023-11-19T03:37:49;435.85;;;130.80;;
15883;SDS011;8040;50.254;10.960;2023-11-19T03:40:16;430.48;;;128.63;;
15883;SDS011;8040;50.254;10.960;2023-11-19T03:42:42;442.33;;;135.00;;
15883;SDS011;8040;50.254;10.960;2023-11-19T03:45:07;440.37;;;134.10;;
15883;SDS011;8040;50.254;10.960;2023-11-19T03:47:36;430.73;;;129.43;;
15883;SDS011;8040;50.254;10.960;2023-11-19T03:50:01;433.73;;;133.87;;
15883;SDS011;8040;50.254;10.960;2023-11-19T03:52:27;432.70;;;131.60;;
15883;SDS011;8040;50.254;10.960;2023-11-19T03:54:54;433.27;;;131.02;;
15883;SDS011;8040;50.254;10.960;2023-11-19T03:57:23;436.30;;;130.65;;
15883;SDS011;8040;50.254;10.960;2023-11-19T03:59:49;449.83;;;135.67;;
15883;SDS011;8040;50.254;10.960;2023-11-19T04:02:14;455.50;;;138.80;;
15883;SDS011;8040;50.254;10.960;2023-11-19T04:04:41;429.67;;;130.85;;
15883;SDS011;8040;50.254;10.960;2023-11-19T04:07:06;434.80;;;134.23;;
15883;SDS011;8040;50.254;10.960;2023-11-19T04:09:32;434.20;;;132.27;;
15883;SDS011;8040;50.254;10.960;2023-11-19T04:12:02;436.60;;;133.25;;
15883;SDS011;8040;50.254;10.960;2023-11-19T04:14:28;447.95;;;137.48;;
15883;SDS011;8040;50.254;10.960;2023-11-19T04:16:54;438.30;;;133.93;;
15883;SDS011;8040;50.254;10.960;2023-11-19T04:19:19;456.03;;;140.73;;
15883;SDS011;8040;50.254;10.960;2023-11-19T04:21:45;430.13;;;134.27;;
15883;SDS011;8040;50.254;10.960;2023-11-19T04:24:11;431.02;;;132.55;;
15883;SDS011;8040;50.254;10.960;2023-11-19T04:26:44;441.67;;;136.43;;
15883;SDS011;8040;50.254;10.960;2023-11-19T04:29:14;433.63;;;133.85;;
15883;SDS011;8040;50.254;10.960;2023-11-19T04:31:42;438.42;;;135.55;;
15883;SDS011;8040;50.254;10.960;2023-11-19T04:34:12;442.92;;;136.95;;
15883;SDS011;8040;50.254;10.960;2023-11-19T04:36:37;431.48;;;132.93;;
15883;SDS011;8040;50.254;10.960;2023-11-19T04:39:06;439.10;;;136.20;;
15883;SDS011;8040;50.254;10.960;2023-11-19T04:41:49;433.45;;;134.15;;
15883;SDS011;8040;50.254;10.960;2023-11-19T04:44:17;435.05;;;133.27;;
15883;SDS011;8040;50.254;10.960;2023-11-19T04:46:43;449.98;;;139.40;;
15883;SDS011;8040;50.254;10.960;2023-11-19T04:49:09;435.42;;;132.93;;
15883;SDS011;8040;50.254;10.960;2023-11-19T04:51:40;441.53;;;136.40;;
15883;SDS011;8040;50.254;10.960;2023-11-19T04:54:07;436.27;;;136.40;;
15883;SDS011;8040;50.254;10.960;2023-11-19T04:56:33;449.90;;;140.60;;
15883;SDS011;8040;50.254;10.960;2023-11-19T04:59:01;446.58;;;139.23;;
15883;SDS011;8040;50.254;10.960;2023-11-19T05:01:26;448.63;;;139.23;;
15883;SDS011;8040;50.254;10.960;2023-11-19T05:03:52;441.33;;;136.57;;
15883;SDS011;8040;50.254;10.960;2023-11-19T05:06:18;448.27;;;139.73;;
15883;SDS011;8040;50.254;10.960;2023-11-19T05:08:43;444.63;;;138.93;;
15883;SDS011;8040;50.254;10.960;2023-11-19T05:11:09;448.73;;;138.43;;
15883;SDS011;8040;50.254;10.960;2023-11-19T05:13:37;440.87;;;140.27;;
15883;SDS011;8040;50.254;10.960;2023-11-19T05:16:03;452.83;;;147.07;;
15883;SDS011;8040;50.254;10.960;2023-11-19T05:18:28;471.63;;;151.32;;
15883;SDS011;8040;50.254;10.960;2023-11-19T05:20:54;441.00;;;141.27;;
15883;SDS011;8040;50.254;10.960;2023-11-19T05:23:21;443.70;;;140.53;;
15883;SDS011;8040;50.254;10.960;2023-11-19T05:25:46;440.20;;;140.95;;
15883;SDS011;8040;50.254;10.960;2023-11-19T05:28:12;443.67;;;141.80;;
15883;SDS011;8040;50.254;10.960;2023-11-19T05:30:39;448.50;;;144.20;;
15883;SDS011;8040;50.254;10.960;2023-11-19T05:33:05;454.17;;;162.60;;
15883;SDS011;8040;50.254;10.960;2023-11-19T05:35:31;451.08;;;155.60;;
15883;SDS011;8040;50.254;10.960;2023-11-19T05:37:57;441.00;;;138.23;;
15883;SDS011;8040;50.254;10.960;2023-11-19T05:40:23;440.77;;;138.07;;
15883;SDS011;8040;50.254;10.960;2023-11-19T05:42:48;450.33;;;142.53;;
15883;SDS011;8040;50.254;10.960;2023-11-19T05:48:36;442.30;;;138.85;;
15883;SDS011;8040;50.254;10.960;2023-11-19T05:51:01;433.55;;;135.30;;
15883;SDS011;8040;50.254;10.960;2023-11-19T05:53:28;435.60;;;135.60;;
15883;SDS011;8040;50.254;10.960;2023-11-19T05:55:53;450.42;;;137.70;;
15883;SDS011;8040;50.254;10.960;2023-11-19T05:58:25;440.13;;;135.85;;
15883;SDS011;8040;50.254;10.960;2023-11-19T06:00:53;445.08;;;138.57;;
15883;SDS011;8040;50.254;10.960;2023-11-19T06:03:19;435.85;;;136.57;;
15883;SDS011;8040;50.254;10.960;2023-11-19T06:05:46;437.95;;;138.05;;
15883;SDS011;8040;50.254;10.960;2023-11-19T06:08:13;452.83;;;140.00;;
15883;SDS011;8040;50.254;10.960;2023-11-19T06:10:40;447.67;;;159.20;;
15883;SDS011;8040;50.254;10.960;2023-11-19T06:13:05;436.00;;;135.90;;
15883;SDS011;8040;50.254;10.960;2023-11-19T06:15:32;434.43;;;138.30;;
15883;SDS011;8040;50.254;10.960;2023-11-19T06:17:58;430.75;;;136.38;;
15883;SDS011;8040;50.254;10.960;2023-11-19T06:20:26;440.85;;;139.80;;
15883;SDS011;8040;50.254;10.960;2023-11-19T06:22:54;439.77;;;141.43;;
15883;SDS011;8040;50.254;10.960;2023-11-19T06:25:19;432.00;;;137.20;;
15883;SDS011;8040;50.254;10.960;2023-11-19T06:27:45;438.40;;;138.90;;
15883;SDS011;8040;50.254;10.960;2023-11-19T06:30:10;458.45;;;145.27;;
15883;SDS011;8040;50.254;10.960;2023-11-19T06:32:37;435.73;;;139.97;;
15883;SDS011;8040;50.254;10.960;2023-11-19T06:35:02;434.20;;;137.50;;
15883;SDS011;8040;50.254;10.960;2023-11-19T06:37:30;440.90;;;141.07;;
15883;SDS011;8040;50.254;10.960;2023-11-19T06:39:55;447.48;;;140.55;;
15883;SDS011;8040;50.254;10.960;2023-11-19T06:42:21;452.00;;;143.57;;
15883;SDS011;8040;50.254;10.960;2023-11-19T06:44:47;438.60;;;140.50;;
15883;SDS011;8040;50.254;10.960;2023-11-19T06:47:12;444.60;;;139.93;;
15883;SDS011;8040;50.254;10.960;2023-11-19T06:49:37;440.80;;;139.80;;
15883;SDS011;8040;50.254;10.960;2023-11-19T06:52:03;434.07;;;134.30;;
15883;SDS011;8040;50.254;10.960;2023-11-19T06:54:29;443.65;;;141.45;;
15883;SDS011;8040;50.254;10.960;2023-11-19T06:56:55;439.08;;;140.30;;
15883;SDS011;8040;50.254;10.960;2023-11-19T06:59:22;436.20;;;138.95;;
15883;SDS011;8040;50.254;10.960;2023-11-19T07:01:48;446.42;;;141.63;;
15883;SDS011;8040;50.254;10.960;2023-11-19T07:04:13;456.92;;;146.82;;
15883;SDS011;8040;50.254;10.960;2023-11-19T07:06:39;443.45;;;141.05;;
15883;SDS011;8040;50.254;10.960;2023-11-19T07:09:07;437.65;;;137.82;;
15883;SDS011;8040;50.254;10.960;2023-11-19T07:11:37;437.27;;;140.90;;
15883;SDS011;8040;50.254;10.960;2023-11-19T07:14:09;435.27;;;140.18;;
15883;SDS011;8040;50.254;10.960;2023-11-19T07:16:34;438.88;;;138.80;;
15883;SDS011;8040;50.254;10.960;2023-11-19T07:19:02;443.65;;;141.27;;
15883;SDS011;8040;50.254;10.960;2023-11-19T07:21:28;466.08;;;147.98;;
15883;SDS011;8040;50.254;10.960;2023-11-19T07:23:54;444.23;;;143.93;;
15883;SDS011;8040;50.254;10.960;2023-11-19T07:26:20;443.10;;;141.77;;
15883;SDS011;8040;50.254;10.960;2023-11-19T07:28:46;442.77;;;142.68;;
15883;SDS011;8040;50.254;10.960;2023-11-19T07:31:12;460.27;;;148.15;;
15883;SDS011;8040;50.254;10.960;2023-11-19T07:33:39;458.40;;;147.75;;
15883;SDS011;8040;50.254;10.960;2023-11-19T07:36:05;441.10;;;142.18;;
15883;SDS011;8040;50.254;10.960;2023-11-19T07:38:30;451.30;;;149.05;;
15883;SDS011;8040;50.254;10.960;2023-11-19T07:40:56;443.73;;;144.37;;
15883;SDS011;8040;50.254;10.960;2023-11-19T07:43:21;435.17;;;142.97;;
15883;SDS011;8040;50.254;10.960;2023-11-19T07:45:47;440.38;;;140.85;;
15883;SDS011;8040;50.254;10.960;2023-11-19T07:48:12;444.88;;;144.48;;
15883;SDS011;8040;50.254;10.960;2023-11-19T07:50:38;435.40;;;143.13;;
15883;SDS011;8040;50.254;10.960;2023-11-19T07:53:04;444.42;;;146.73;;
15883;SDS011;8040;50.254;10.960;2023-11-19T07:55:29;435.05;;;142.50;;
15883;SDS011;8040;50.254;10.960;2023-11-19T07:57:55;444.80;;;145.43;;
15883;SDS011;8040;50.254;10.960;2023-11-19T08:00:21;436.80;;;142.43;;
15883;SDS011;8040;50.254;10.960;2023-11-19T08:02:46;441.43;;;155.63;;
15883;SDS011;8040;50.254;10.960;2023-11-19T08:05:12;424.67;;;141.27;;
15883;SDS011;8040;50.254;10.960;2023-11-19T08:07:37;442.27;;;147.50;;
15883;SDS011;8040;50.254;10.960;2023-11-19T08:10:04;441.93;;;145.10;;
15883;SDS011;8040;50.254;10.960;2023-11-19T08:12:30;445.45;;;147.38;;
15883;SDS011;8040;50.254;10.960;2023-11-19T08:15:02;442.55;;;144.52;;
15883;SDS011;8040;50.254;10.960;2023-11-19T08:17:29;440.02;;;147.07;;
15883;SDS011;8040;50.254;10.960;2023-11-19T08:19:55;445.30;;;147.85;;
15883;SDS011;8040;50.254;10.960;2023-11-19T08:22:21;450.05;;;145.88;;
15883;SDS011;8040;50.254;10.960;2023-11-19T08:24:47;436.55;;;147.48;;
15883;SDS011;8040;50.254;10.960;2023-11-19T08:27:13;444.92;;;153.40;;
15883;SDS011;8040;50.254;10.960;2023-11-19T08:29:38;443.02;;;149.02;;
15883;SDS011;8040;50.254;10.960;2023-11-19T08:32:04;447.10;;;146.67;;
15883;SDS011;8040;50.254;10.960;2023-11-19T08:34:31;451.33;;;152.30;;
15883;SDS011;8040;50.254;10.960;2023-11-19T08:36:59;438.00;;;146.32;;
15883;SDS011;8040;50.254;10.960;2023-11-19T08:39:24;463.45;;;156.27;;
15883;SDS011;8040;50.254;10.960;2023-11-19T08:41:50;456.00;;;157.95;;
15883;SDS011;8040;50.254;10.960;2023-11-19T08:44:16;451.77;;;156.93;;
15883;SDS011;8040;50.254;10.960;2023-11-19T08:46:51;431.70;;;149.90;;
15883;SDS011;8040;50.254;10.960;2023-11-19T08:49:16;432.55;;;156.27;;
15883;SDS011;8040;50.254;10.960;2023-11-19T08:51:42;443.50;;;156.73;;
15883;SDS011;8040;50.254;10.960;2023-11-19T08:54:08;442.60;;;157.33;;
15883;SDS011;8040;50.254;10.960;2023-11-19T08:56:33;447.03;;;155.73;;
15883;SDS011;8040;50.254;10.960;2023-11-19T08:59:00;453.67;;;159.25;;
15883;SDS011;8040;50.254;10.960;2023-11-19T09:01:26;442.95;;;157.98;;
15883;SDS011;8040;50.254;10.960;2023-11-19T09:03:51;441.23;;;158.77;;
15883;SDS011;8040;50.254;10.960;2023-11-19T09:06:17;451.00;;;160.50;;
15883;SDS011;8040;50.254;10.960;2023-11-19T09:08:43;445.20;;;161.60;;
15883;SDS011;8040;50.254;10.960;2023-11-19T09:11:09;451.95;;;161.88;;
15883;SDS011;8040;50.254;10.960;2023-11-19T09:13:35;460.70;;;167.75;;
15883;SDS011;8040;50.254;10.960;2023-11-19T09:16:01;466.67;;;170.45;;
15883;SDS011;8040;50.254;10.960;2023-11-19T09:18:31;470.42;;;173.05;;
15883;SDS011;8040;50.254;10.960;2023-11-19T09:20:57;455.15;;;163.70;;
15883;SDS011;8040;50.254;10.960;2023-11-19T09:23:23;444.23;;;162.00;;
15883;SDS011;8040;50.254;10.960;2023-11-19T09:25:50;464.42;;;169.18;;
15883;SDS011;8040;50.254;10.960;2023-11-19T09:28:16;452.95;;;165.30;;
15883;SDS011;8040;50.254;10.960;2023-11-19T09:30:41;462.90;;;172.00;;
15883;SDS011;8040;50.254;10.960;2023-11-19T09:33:07;466.10;;;174.38;;
15883;SDS011;8040;50.254;10.960;2023-11-19T09:35:33;459.67;;;178.48;;
15883;SDS011;8040;50.254;10.960;2023-11-19T09:37:58;449.58;;;169.15;;
15883;SDS011;8040;50.254;10.960;2023-11-19T09:40:24;452.35;;;168.45;;
15883;SDS011;8040;50.254;10.960;2023-11-19T09:42:49;460.57;;;175.63;;
15883;SDS011;8040;50.254;10.960;2023-11-19T09:45:16;465.63;;;176.05;;
15883;SDS011;8040;50.254;10.960;2023-11-19T09:47:43;451.35;;;172.07;;
15883;SDS011;8040;50.254;10.960;2023-11-19T09:50:14;430.63;;;162.67;;
15883;SDS011;8040;50.254;10.960;2023-11-19T09:52:42;441.27;;;165.70;;
15883;SDS011;8040;50.254;10.960;2023-11-19T09:55:08;415.63;;;160.50;;
15883;SDS011;8040;50.254;10.960;2023-11-19T09:57:34;424.95;;;160.88;;
15883;SDS011;8040;50.254;10.960;2023-11-19T10:00:03;423.63;;;161.75;;
15883;SDS011;8040;50.254;10.960;2023-11-19T10:02:33;416.90;;;158.27;;
15883;SDS011;8040;50.254;10.960;2023-11-19T10:05:04;426.58;;;164.48;;
15883;SDS011;8040;50.254;10.960;2023-11-19T10:07:31;438.63;;;167.57;;
15883;SDS011;8040;50.254;10.960;2023-11-19T10:10:00;432.00;;;167.88;;
15883;SDS011;8040;50.254;10.960;2023-11-19T10:12:27;444.63;;;169.63;;
15883;SDS011;8040;50.254;10.960;2023-11-19T10:14:54;417.95;;;160.98;;
15883;SDS011;8040;50.254;10.960;2023-11-19T10:17:22;424.48;;;167.85;;
15883;SDS011;8040;50.254;10.960;2023-11-19T10:19:54;424.95;;;165.63;;
15883;SDS011;8040;50.254;10.960;2023-11-19T10:22:20;438.58;;;169.98;;
15883;SDS011;8040;50.254;10.960;2023-11-19T10:24:45;448.37;;;170.97;;
15883;SDS011;8040;50.254;10.960;2023-11-19T10:27:16;422.87;;;165.07;;
15883;SDS011;8040;50.254;10.960;2023-11-19T10:29:47;423.65;;;176.82;;
15883;SDS011;8040;50.254;10.960;2023-11-19T10:32:13;440.20;;;170.53;;
15883;SDS011;8040;50.254;10.960;2023-11-19T10:34:40;434.65;;;170.43;;
15883;SDS011;8040;50.254;10.960;2023-11-19T10:37:06;425.55;;;164.93;;
15883;SDS011;8040;50.254;10.960;2023-11-19T10:39:51;425.80;;;168.93;;
15883;SDS011;8040;50.254;10.960;2023-11-19T10:42:20;460.90;;;182.18;;
15883;SDS011;8040;50.254;10.960;2023-11-19T10:44:46;453.25;;;177.52;;
15883;SDS011;8040;50.254;10.960;2023-11-19T10:47:11;420.25;;;168.57;;
15883;SDS011;8040;50.254;10.960;2023-11-19T10:49:39;426.13;;;171.10;;
15883;SDS011;8040;50.254;10.960;2023-11-19T10:52:06;427.67;;;168.93;;
15883;SDS011;8040;50.254;10.960;2023-11-19T10:54:34;460.17;;;180.05;;
15883;SDS011;8040;50.254;10.960;2023-11-19T10:57:00;454.42;;;176.75;;
15883;SDS011;8040;50.254;10.960;2023-11-19T10:59:30;461.10;;;186.77;;
15883;SDS011;8040;50.254;10.960;2023-11-19T11:02:00;446.90;;;180.43;;
15883;SDS011;8040;50.254;10.960;2023-11-19T11:04:32;452.33;;;178.55;;
15883;SDS011;8040;50.254;10.960;2023-11-19T11:07:02;444.60;;;180.00;;
15883;SDS011;8040;50.254;10.960;2023-11-19T11:09:29;477.23;;;210.90;;
15883;SDS011;8040;50.254;10.960;2023-11-19T11:11:55;451.20;;;178.53;;
15883;SDS011;8040;50.254;10.960;2023-11-19T11:14:22;442.80;;;174.57;;
15883;SDS011;8040;50.254;10.960;2023-11-19T11:16:51;458.75;;;181.43;;
15883;SDS011;8040;50.254;10.960;2023-11-19T11:19:18;456.20;;;182.65;;
15883;SDS011;8040;50.254;10.960;2023-11-19T11:21:44;454.27;;;179.35;;
15883;SDS011;8040;50.254;10.960;2023-11-19T11:24:37;451.98;;;180.32;;
15883;SDS011;8040;50.254;10.960;2023-11-19T11:27:23;462.20;;;181.88;;
15883;SDS011;8040;50.254;10.960;2023-11-19T11:30:18;488.53;;;190.20;;
15883;SDS011;8040;50.254;10.960;2023-11-19T11:35:49;463.67;;;188.82;;
15883;SDS011;8040;50.254;10.960;2023-11-19T11:38:37;457.75;;;183.73;;
15883;SDS011;8040;50.254;10.960;2023-11-19T11:41:19;452.63;;;183.80;;
15883;SDS011;8040;50.254;10.960;2023-11-19T11:43:50;437.58;;;181.07;;
15883;SDS011;8040;50.254;10.960;2023-11-19T11:49:02;443.20;;;191.98;;
15883;SDS011;8040;50.254;10.960;2023-11-19T11:54:31;457.65;;;189.70;;
15883;SDS011;8040;50.254;10.960;2023-11-19T11:57:01;470.88;;;197.90;;
15883;SDS011;8040;50.254;10.960;2023-11-19T11:59:36;450.00;;;201.80;;
15883;SDS011;8040;50.254;10.960;2023-11-19T12:02:18;439.43;;;193.30;;
15883;SDS011;8040;50.254;10.960;2023-11-19T12:04:48;467.80;;;199.63;;
15883;SDS011;8040;50.254;10.960;2023-11-19T12:07:16;462.25;;;209.02;;
15883;SDS011;8040;50.254;10.960;2023-11-19T12:10:19;440.23;;;178.73;;
15883;SDS011;8040;50.254;10.960;2023-11-19T12:12:38;426.33;;;176.02;;
15883;SDS011;8040;50.254;10.960;2023-11-19T12:17:50;480.23;;;205.73;;
15883;SDS011;8040;50.254;10.960;2023-11-19T12:20:17;440.27;;;179.13;;
15883;SDS011;8040;50.254;10.960;2023-11-19T12:22:45;444.35;;;182.68;;
15883;SDS011;8040;50.254;10.960;2023-11-19T12:25:12;452.83;;;193.73;;
15883;SDS011;8040;50.254;10.960;2023-11-19T12:27:41;460.30;;;208.30;;
15883;SDS011;8040;50.254;10.960;2023-11-19T12:30:08;462.87;;;195.20;;
15883;SDS011;8040;50.254;10.960;2023-11-19T12:32:42;452.35;;;190.27;;
15883;SDS011;8040;50.254;10.960;2023-11-19T12:35:09;461.08;;;184.75;;
15883;SDS011;8040;50.254;10.960;2023-11-19T12:37:44;469.60;;;187.40;;
15883;SDS011;8040;50.254;10.960;2023-11-19T12:40:15;441.83;;;177.80;;
15883;SDS011;8040;50.254;10.960;2023-11-19T12:42:42;441.02;;;177.93;;
15883;SDS011;8040;50.254;10.960;2023-11-19T12:45:09;437.10;;;173.90;;
15883;SDS011;8040;50.254;10.960;2023-11-19T12:47:38;430.20;;;174.32;;
15883;SDS011;8040;50.254;10.960;2023-11-19T12:50:05;446.25;;;177.75;;
15883;SDS011;8040;50.254;10.960;2023-11-19T12:52:31;468.67;;;184.77;;
15883;SDS011;8040;50.254;10.960;2023-11-19T12:54:57;444.95;;;178.32;;
15883;SDS011;8040;50.254;10.960;2023-11-19T12:57:40;461.37;;;189.47;;
15883;SDS011;8040;50.254;10.960;2023-11-19T13:00:07;428.95;;;201.38;;
15883;SDS011;8040;50.254;10.960;2023-11-19T13:02:48;427.00;;;192.70;;
15883;SDS011;8040;50.254;10.960;2023-11-19T13:10:28;451.95;;;189.90;;
15883;SDS011;8040;50.254;10.960;2023-11-19T13:13:04;429.63;;;171.48;;
15883;SDS011;8040;50.254;10.960;2023-11-19T13:18:05;433.52;;;174.25;;
15883;SDS011;8040;50.254;10.960;2023-11-19T13:20:32;413.95;;;171.93;;
15883;SDS011;8040;50.254;10.960;2023-11-19T13:23:02;435.58;;;179.05;;
15883;SDS011;8040;50.254;10.960;2023-11-19T13:25:29;446.50;;;180.13;;
15883;SDS011;8040;50.254;10.960;2023-11-19T13:27:55;442.33;;;179.98;;
15883;SDS011;8040;50.254;10.960;2023-11-19T13:30:23;431.33;;;177.87;;
15883;SDS011;8040;50.254;10.960;2023-11-19T13:32:49;436.35;;;180.75;;
15883;SDS011;8040;50.254;10.960;2023-11-19T13:35:15;429.23;;;179.93;;
15883;SDS011;8040;50.254;10.960;2023-11-19T13:37:45;439.17;;;182.00;;
15883;SDS011;8040;50.254;10.960;2023-11-19T13:40:11;447.65;;;183.00;;
15883;SDS011;8040;50.254;10.960;2023-11-19T13:42:43;462.15;;;182.68;;
15883;SDS011;8040;50.254;10.960;2023-11-19T13:45:12;444.85;;;184.07;;
15883;SDS011;8040;50.254;10.960;2023-11-19T13:47:39;459.60;;;188.32;;
15883;SDS011;8040;50.254;10.960;2023-11-19T13:50:09;430.80;;;182.27;;
15883;SDS011;8040;50.254;10.960;2023-11-19T13:52:40;447.30;;;182.88;;
15883;SDS011;8040;50.254;10.960;2023-11-19T13:55:08;426.77;;;175.23;;
15883;SDS011;8040;50.254;10.960;2023-11-19T13:57:37;438.80;;;190.77;;
15883;SDS011;8040;50.254;10.960;2023-11-19T14:02:44;437.85;;;179.52;;
15883;SDS011;8040;50.254;10.960;2023-11-19T14:05:12;425.48;;;176.30;;
15883;SDS011;8040;50.254;10.960;2023-11-19T14:07:39;431.88;;;174.15;;
15883;SDS011;8040;50.254;10.960;2023-11-19T14:10:05;420.02;;;171.18;;
15883;SDS011;8040;50.254;10.960;2023-11-19T14:12:32;443.92;;;179.10;;
15883;SDS011;8040;50.254;10.960;2023-11-19T14:14:58;435.00;;;177.93;;
15883;SDS011;8040;50.254;10.960;2023-11-19T14:17:25;437.53;;;173.77;;
15883;SDS011;8040;50.254;10.960;2023-11-19T14:19:50;429.10;;;174.33;;
15883;SDS011;8040;50.254;10.960;2023-11-19T14:22:16;452.47;;;187.17;;
15883;SDS011;8040;50.254;10.960;2023-11-19T14:24:42;425.07;;;172.47;;
15883;SDS011;8040;50.254;10.960;2023-11-19T14:27:08;424.52;;;173.43;;